Time;durP1;ratioP1;P1;durP2;ratioP2;P2;SDS_P1;SDS_P2;PMS_P1;PMS_P2;Temp;Humidity;BMP_temperature;BMP_pressure;BME280_temperature;BME280_humidity;BME280_pressure;Samples;Min_cycle;Max_cycle;Signal;HPM_P1;HPM_P2
2022/08/20 00:01:44;;;;;;;10.10;4.63;;;19.90;99.90;;;;;;5035674;28;20052;-70
2022/08/20 00:04:10;;;;;;;12.03;5.07;;;19.90;99.90;;;;;;5035520;28;20513;-69
2022/08/20 00:06:36;;;;;;;14.07;4.30;;;19.90;99.90;;;;;;5036294;28;20045;-70
2022/08/20 00:09:03;;;;;;;12.10;4.57;;;19.90;99.90;;;;;;5018033;28;20392;-69
2022/08/20 00:11:29;;;;;;;11.37;5.00;;;19.90;99.90;;;;;;5018069;28;20054;-69
2022/08/20 00:13:58;;;;;;;12.90;4.93;;;19.90;99.90;;;;;;5035477;28;20076;-69
2022/08/20 00:16:25;;;;;;;10.27;4.60;;;19.90;99.90;;;;;;5035051;28;20477;-69
2022/08/20 00:18:51;;;;;;;14.53;4.87;;;19.90;99.90;;;;;;5035961;28;20091;-69
2022/08/20 00:21:19;;;;;;;12.67;4.63;;;19.90;99.90;;;;;;5035010;28;20452;-69
2022/08/20 00:23:47;;;;;;;10.23;4.33;;;19.90;99.90;;;;;;5035134;28;20045;-70
2022/08/20 00:26:13;;;;;;;12.47;4.30;;;19.90;99.90;;;;;;5035092;28;20041;-69
2022/08/20 00:28:40;;;;;;;13.43;4.50;;;19.90;99.90;;;;;;5035035;28;20085;-69
2022/08/20 00:31:09;;;;;;;13.67;5.50;;;19.90;99.90;;;;;;5035354;28;20050;-70
2022/08/20 00:33:36;;;;;;;11.53;4.77;;;19.90;99.90;;;;;;5035020;28;20120;-70
2022/08/20 00:36:05;;;;;;;8.60;4.37;;;19.90;99.90;;;;;;5035219;28;20049;-70
2022/08/20 00:38:32;;;;;;;13.37;5.27;;;19.90;99.90;;;;;;5017348;28;20091;-70
2022/08/20 00:40:59;;;;;;;9.73;4.80;;;19.80;99.90;;;;;;5035165;28;20052;-69
2022/08/20 00:43:46;;;;;;;12.30;5.60;;;19.80;99.90;;;;;;5035212;28;20054;-70
2022/08/20 00:46:14;;;;;;;11.13;5.07;;;19.70;99.90;;;;;;5035314;28;20057;-69
2022/08/20 00:48:43;;;;;;;13.03;5.73;;;19.60;99.90;;;;;;5034278;28;20126;-70
2022/08/20 00:51:16;;;;;;;12.97;5.40;;;19.60;99.90;;;;;;5034399;28;20516;-69
2022/08/20 00:53:43;;;;;;;12.97;5.63;;;19.60;99.90;;;;;;5034633;28;20045;-70
2022/08/20 00:56:10;;;;;;;10.33;5.27;;;19.50;99.90;;;;;;5034721;28;20103;-69
2022/08/20 00:58:39;;;;;;;11.10;5.63;;;19.50;99.90;;;;;;5034504;28;20054;-69
2022/08/20 01:01:06;;;;;;;12.43;6.10;;;19.50;99.90;;;;;;5034506;28;20053;-69
2022/08/20 01:03:32;;;;;;;13.57;5.67;;;19.50;99.90;;;;;;5033122;28;20504;-70
2022/08/20 01:05:59;;;;;;;12.93;5.83;;;19.40;99.90;;;;;;5034412;28;20056;-70
2022/08/20 01:08:25;;;;;;;12.93;5.77;;;19.40;99.90;;;;;;5034336;28;20188;-69
2022/08/20 01:11:06;;;;;;;9.53;5.50;;;19.40;99.90;;;;;;5017202;28;20131;-70
2022/08/20 01:13:35;;;;;;;12.27;5.87;;;19.40;99.90;;;;;;5034388;28;20132;-70
2022/08/20 01:16:03;;;;;;;10.13;5.50;;;19.40;99.90;;;;;;5034204;28;20076;-70
2022/08/20 01:18:29;;;;;;;13.90;5.93;;;19.40;99.90;;;;;;5034777;28;20049;-70
2022/08/20 01:20:59;;;;;;;13.00;5.17;;;19.30;99.90;;;;;;5034905;28;20045;-70
2022/08/20 01:23:52;;;;;;;10.33;5.87;;;19.30;99.90;;;;;;5034052;28;20049;-70
2022/08/20 01:26:23;;;;;;;16.90;6.13;;;19.30;99.90;;;;;;5034110;28;20081;-69
2022/08/20 01:28:52;;;;;;;10.70;5.77;;;19.30;99.90;;;;;;5034414;28;20048;-69
2022/08/20 01:31:21;;;;;;;9.23;5.77;;;19.30;99.90;;;;;;5016333;28;20050;-69
2022/08/20 01:33:48;;;;;;;15.63;6.77;;;19.30;99.90;;;;;;5033975;28;20038;-69
2022/08/20 01:36:15;;;;;;;12.10;6.40;;;19.30;99.90;;;;;;5033914;28;20056;-71
2022/08/20 01:38:43;;;;;;;13.67;6.47;;;19.30;99.90;;;;;;5033951;28;20049;-69
2022/08/20 01:41:42;;;;;;;12.37;6.10;;;19.30;99.90;;;;;;5033886;28;20114;-69
2022/08/20 01:44:08;;;;;;;17.63;6.60;;;19.30;99.90;;;;;;5033981;28;20123;-68
2022/08/20 01:46:37;;;;;;;10.10;6.00;;;19.30;99.90;;;;;;5033733;28;20041;-68
2022/08/20 01:49:20;;;;;;;12.50;5.93;;;19.30;99.90;;;;;;5033450;28;20503;-68
2022/08/20 01:51:47;;;;;;;11.17;6.33;;;19.30;99.90;;;;;;5033317;28;20049;-69
2022/08/20 01:54:13;;;;;;;12.77;5.77;;;19.30;99.90;;;;;;5033614;28;20048;-69
2022/08/20 01:56:53;;;;;;;10.83;5.90;;;19.20;99.90;;;;;;5033905;28;20045;-69
2022/08/20 01:59:19;;;;;;;13.27;6.30;;;19.20;99.90;;;;;;5033607;28;20186;-69
2022/08/20 02:01:45;;;;;;;13.43;5.63;;;19.10;99.90;;;;;;5033708;28;20095;-69
2022/08/20 02:04:10;;;;;;;11.40;5.83;;;19.10;99.90;;;;;;5034145;28;20041;-69
2022/08/20 02:06:40;;;;;;;10.70;6.17;;;19.00;99.90;;;;;;5033474;28;20512;-68
2022/08/20 02:09:07;;;;;;;11.37;5.57;;;18.90;99.90;;;;;;5033382;28;20057;-69
2022/08/20 02:11:34;;;;;;;11.57;5.80;;;19.00;99.90;;;;;;5033388;28;20053;-69
2022/08/20 02:14:00;;;;;;;9.73;5.43;;;18.90;99.90;;;;;;5033131;28;20150;-69
2022/08/20 02:16:31;;;;;;;11.57;5.30;;;18.90;99.90;;;;;;5033263;28;20136;-69
2022/08/20 02:19:01;;;;;;;10.47;5.50;;;18.80;99.90;;;;;;5032868;28;20485;-68
2022/08/20 02:21:30;;;;;;;11.57;6.27;;;18.80;99.90;;;;;;5033744;28;20048;-68
2022/08/20 02:23:57;;;;;;;10.33;6.03;;;18.70;99.90;;;;;;5015468;28;20042;-69
2022/08/20 02:26:24;;;;;;;9.57;5.73;;;18.60;99.90;;;;;;5033167;28;20132;-69
2022/08/20 02:28:51;;;;;;;9.73;5.87;;;18.60;99.90;;;;;;5033199;28;20084;-69
2022/08/20 02:31:20;;;;;;;9.63;5.37;;;18.60;99.90;;;;;;5033118;28;20084;-69
2022/08/20 02:33:46;;;;;;;10.17;5.67;;;18.60;99.90;;;;;;5032893;28;20559;-68
2022/08/20 02:36:14;;;;;;;14.03;7.10;;;18.60;99.90;;;;;;5033328;28;20045;-68
2022/08/20 02:38:40;;;;;;;11.80;5.93;;;18.60;99.90;;;;;;5033132;28;20042;-68
2022/08/20 02:41:06;;;;;;;11.23;5.13;;;18.70;99.90;;;;;;5033080;28;20052;-68
2022/08/20 02:43:33;;;;;;;8.53;4.57;;;18.70;99.90;;;;;;5033073;28;20107;-68
2022/08/20 02:45:59;;;;;;;9.53;4.80;;;18.70;99.90;;;;;;5015377;28;20045;-68
2022/08/20 02:48:26;;;;;;;11.63;4.57;;;18.70;99.90;;;;;;5033176;28;20057;-68
2022/08/20 02:50:57;;;;;;;11.73;5.23;;;18.70;99.90;;;;;;5032956;28;20045;-69
2022/08/20 02:53:36;;;;;;;11.43;4.30;;;18.70;99.90;;;;;;5033574;28;20041;-68
2022/08/20 02:56:05;;;;;;;12.97;4.70;;;18.70;99.90;;;;;;5033330;28;20420;-68
2022/08/20 02:58:32;;;;;;;9.73;5.07;;;18.70;99.90;;;;;;5033224;28;20377;-68
2022/08/20 03:00:58;;;;;;;12.70;4.53;;;18.60;99.90;;;;;;5032939;28;20087;-69
2022/08/20 03:03:24;;;;;;;9.93;4.20;;;18.60;99.90;;;;;;5033703;28;20042;-68
2022/08/20 03:05:53;;;;;;;11.90;4.33;;;18.60;99.90;;;;;;5032973;28;20138;-68
2022/08/20 03:08:20;;;;;;;11.43;4.63;;;18.50;99.90;;;;;;5015283;28;20045;-68
2022/08/20 03:10:47;;;;;;;10.43;3.47;;;18.50;99.90;;;;;;5032846;28;20050;-68
2022/08/20 03:13:14;;;;;;;11.73;3.93;;;18.40;99.90;;;;;;5032817;28;20060;-68
2022/08/20 03:15:44;;;;;;;12.27;3.90;;;18.40;99.90;;;;;;5032805;28;20057;-68
2022/08/20 03:18:11;;;;;;;11.30;4.07;;;18.40;99.90;;;;;;5032755;28;20056;-68
2022/08/20 03:20:37;;;;;;;12.50;3.87;;;18.30;99.90;;;;;;5015807;28;20397;-68
2022/08/20 03:23:03;;;;;;;10.23;3.20;;;18.30;99.90;;;;;;5032618;28;20049;-68
2022/08/20 03:25:29;;;;;;;11.23;3.33;;;18.30;99.90;;;;;;5015581;28;20050;-68
2022/08/20 03:27:55;;;;;;;13.20;4.20;;;18.30;99.90;;;;;;5036119;28;20045;-69
2022/08/20 03:30:23;;;;;;;11.93;3.87;;;18.30;99.90;;;;;;5036200;28;20056;-68
2022/08/20 03:32:49;;;;;;;12.97;3.63;;;18.20;99.90;;;;;;5036154;28;20124;-68
2022/08/20 03:35:16;;;;;;;11.47;3.73;;;18.20;99.90;;;;;;5019397;28;20116;-68
2022/08/20 03:37:42;;;;;;;11.27;3.77;;;18.20;99.90;;;;;;5036079;28;20103;-68
2022/08/20 03:40:12;;;;;;;14.53;4.00;;;18.20;99.90;;;;;;5035689;28;20546;-68
2022/08/20 03:42:39;;;;;;;11.40;3.27;;;18.20;99.90;;;;;;5035983;28;20041;-68
2022/08/20 03:45:07;;;;;;;12.27;4.00;;;18.20;99.90;;;;;;5035806;28;20037;-68
2022/08/20 03:47:32;;;;;;;10.40;3.70;;;18.20;99.90;;;;;;5035776;28;20065;-68
2022/08/20 03:49:59;;;;;;;14.63;3.60;;;18.20;99.90;;;;;;5036190;28;20386;-68
2022/08/20 03:52:28;;;;;;;12.47;4.07;;;18.20;99.90;;;;;;5035834;28;20049;-68
2022/08/20 03:54:54;;;;;;;10.53;3.60;;;18.20;99.90;;;;;;5035809;28;20045;-68
2022/08/20 03:57:20;;;;;;;9.17;3.43;;;18.20;99.90;;;;;;5036009;28;20442;-68
2022/08/20 03:59:45;;;;;;;11.00;4.03;;;18.20;99.90;;;;;;5036470;28;20085;-68
2022/08/20 04:02:11;;;;;;;9.53;3.20;;;18.10;99.90;;;;;;5036413;28;20125;-68
2022/08/20 04:04:39;;;;;;;12.57;3.47;;;18.10;99.90;;;;;;5036095;28;20485;-68
2022/08/20 04:07:24;;;;;;;13.97;3.83;;;18.00;99.90;;;;;;5018837;28;20124;-68
2022/08/20 04:09:54;;;;;;;9.50;3.38;;;18.00;99.90;;;;;;5035703;28;20045;-68
2022/08/20 04:12:21;;;;;;;10.33;3.33;;;18.00;99.90;;;;;;5035475;28;20152;-68
2022/08/20 04:14:47;;;;;;;11.20;3.60;;;17.90;99.90;;;;;;5035353;28;20042;-68
2022/08/20 04:17:13;;;;;;;12.20;3.40;;;17.90;99.90;;;;;;5035354;28;20041;-68
2022/08/20 04:19:40;;;;;;;12.23;3.37;;;17.90;99.90;;;;;;5017614;28;20053;-68
2022/08/20 04:22:06;;;;;;;10.37;3.20;;;17.90;99.90;;;;;;5035221;28;20148;-67
2022/08/20 04:24:33;;;;;;;9.77;3.30;;;17.90;99.90;;;;;;5035136;28;20045;-68
2022/08/20 04:27:01;;;;;;;10.80;3.80;;;17.90;99.90;;;;;;5035209;28;20061;-68
2022/08/20 04:29:27;;;;;;;11.37;3.20;;;17.90;99.90;;;;;;5035141;28;20049;-68
2022/08/20 04:31:54;;;;;;;11.03;3.43;;;18.00;99.90;;;;;;5035333;28;20092;-68
2022/08/20 04:34:20;;;;;;;9.47;3.63;;;18.00;99.90;;;;;;5035022;28;20462;-68
2022/08/20 04:36:47;;;;;;;10.07;3.50;;;18.00;99.90;;;;;;5035472;28;20077;-68
2022/08/20 04:39:13;;;;;;;15.03;3.70;;;18.00;99.90;;;;;;5034974;28;20088;-68
2022/08/20 04:41:40;;;;;;;11.77;3.10;;;18.00;99.90;;;;;;5034958;28;20045;-68
2022/08/20 04:44:06;;;;;;;10.77;3.30;;;18.00;99.90;;;;;;5017936;28;20085;-68
2022/08/20 04:46:32;;;;;;;9.97;2.80;;;17.90;99.90;;;;;;5034808;28;20096;-68
2022/08/20 04:49:00;;;;;;;10.53;3.00;;;17.80;99.90;;;;;;5035565;28;20054;-68
2022/08/20 04:51:25;;;;;;;7.87;2.93;;;17.70;99.90;;;;;;5034781;28;20052;-68
2022/08/20 04:53:53;;;;;;;10.93;3.00;;;17.70;99.90;;;;;;5034671;28;20042;-68
2022/08/20 04:56:22;;;;;;;9.40;2.60;;;17.70;99.90;;;;;;5034944;28;20471;-68
2022/08/20 04:58:48;;;;;;;10.67;2.93;;;17.60;99.90;;;;;;5034613;28;20049;-68
2022/08/20 05:01:14;;;;;;;11.93;3.17;;;17.60;99.90;;;;;;5035023;28;20428;-68
2022/08/20 05:03:40;;;;;;;12.70;3.10;;;17.60;99.90;;;;;;5034720;28;20145;-68
2022/08/20 05:06:08;;;;;;;10.20;3.73;;;17.60;99.90;;;;;;5035142;28;20458;-68
2022/08/20 05:08:34;;;;;;;9.93;3.37;;;17.60;99.90;;;;;;5034893;28;20131;-68
2022/08/20 05:11:01;;;;;;;10.73;3.30;;;17.50;99.90;;;;;;5034877;28;20468;-68
2022/08/20 05:13:27;;;;;;;12.97;3.33;;;17.50;99.90;;;;;;5035045;28;20107;-68
2022/08/20 05:15:54;;;;;;;10.03;2.70;;;17.50;99.90;;;;;;5034333;28;20481;-67
2022/08/20 05:18:24;;;;;;;12.70;2.90;;;17.50;99.90;;;;;;5034181;28;20511;-68
2022/08/20 05:20:50;;;;;;;8.40;2.97;;;17.50;99.90;;;;;;5017503;28;20053;-67
2022/08/20 05:23:17;;;;;;;7.83;2.67;;;17.50;99.90;;;;;;5034582;28;20037;-68
2022/08/20 05:25:46;;;;;;;8.73;3.30;;;17.50;99.90;;;;;;5034093;28;20393;-68
2022/08/20 05:28:22;;;;;;;7.97;2.90;;;17.50;99.90;;;;;;5033712;28;20494;-68
2022/08/20 05:30:49;;;;;;;7.83;3.23;;;17.50;99.90;;;;;;5033948;28;20041;-68
2022/08/20 05:33:18;;;;;;;9.47;3.53;;;17.50;99.90;;;;;;5033950;28;20052;-68
2022/08/20 05:35:45;;;;;;;9.40;3.50;;;17.60;99.90;;;;;;5033918;28;20038;-68
2022/08/20 05:38:15;;;;;;;9.77;3.37;;;17.70;99.90;;;;;;5034355;28;20046;-68
2022/08/20 05:40:42;;;;;;;10.63;3.60;;;17.70;99.90;;;;;;5033828;28;20444;-68
2022/08/20 05:43:08;;;;;;;10.67;3.60;;;17.80;99.90;;;;;;5033732;28;20049;-68
2022/08/20 05:45:36;;;;;;;12.90;4.07;;;17.80;99.90;;;;;;5016619;28;20065;-68
2022/08/20 05:48:11;;;;;;;10.17;3.50;;;17.90;99.90;;;;;;5033028;28;20061;-68
2022/08/20 05:50:38;;;;;;;9.53;3.03;;;18.00;99.90;;;;;;5033710;28;20059;-68
2022/08/20 05:53:05;;;;;;;13.87;3.33;;;18.00;99.90;;;;;;5033630;28;20067;-69
2022/08/20 05:55:31;;;;;;;12.47;3.50;;;18.10;99.90;;;;;;5033540;28;20053;-69
2022/08/20 05:57:58;;;;;;;12.63;3.70;;;18.30;99.90;;;;;;5033662;28;20444;-70
2022/08/20 06:00:25;;;;;;;8.17;2.97;;;18.90;99.90;;;;;;5034012;28;20068;-70
2022/08/20 06:05:34;;;;;;;9.03;3.30;;;20.80;99.90;;;;;;5033984;28;20053;-68
2022/08/20 06:08:02;;;;;;;8.80;2.67;;;21.70;99.90;;;;;;5033454;28;20049;-68
2022/08/20 06:10:28;;;;;;;8.73;2.70;;;22.20;99.90;;;;;;5033384;28;20072;-68
2022/08/20 06:12:53;;;;;;;8.77;3.13;;;22.90;99.90;;;;;;5033471;28;20041;-68
2022/08/20 06:15:19;;;;;;;12.00;3.23;;;23.50;99.90;;;;;;5033372;28;20542;-68
2022/08/20 06:17:45;;;;;;;9.07;3.03;;;24.10;99.90;;;;;;5034152;28;20104;-69
2022/08/20 06:20:11;;;;;;;8.43;2.67;;;24.90;99.90;;;;;;5033368;28;20390;-69
2022/08/20 06:22:37;;;;;;;7.10;2.37;;;25.80;99.90;;;;;;5015749;28;20038;-69
2022/08/20 06:25:06;;;;;;;12.40;3.40;;;26.50;96.70;;;;;;5034036;28;20046;-68
2022/08/20 06:27:33;;;;;;;7.80;2.53;;;;;;;;;;5033584;28;20045;-69
2022/08/20 06:29:59;;;;;;;10.23;2.70;;;28.20;65.50;;;;;;5033336;28;20049;-70
2022/08/20 06:32:25;;;;;;;7.07;2.47;;;28.50;74.10;;;;;;5033583;28;20049;-70
2022/08/20 06:34:52;;;;;;;7.40;2.73;;;28.70;69.00;;;;;;5033366;28;20046;-70
2022/08/20 06:37:26;;;;;;;8.30;2.50;;;28.80;66.60;;;;;;5033277;28;20500;-70
2022/08/20 06:39:52;;;;;;;7.03;2.13;;;29.10;62.90;;;;;;5016212;28;20049;-72
2022/08/20 06:42:19;;;;;;;7.43;2.47;;;29.70;62.60;;;;;;5033871;28;20119;-72
2022/08/20 06:44:48;;;;;;;8.18;2.83;;;30.30;59.40;;;;;;5015516;28;20037;-71
2022/08/20 06:47:18;;;;;;;8.93;2.22;;;30.70;81.10;;;;;;5033519;28;20050;-70
2022/08/20 06:49:44;;;;;;;8.02;2.50;;;31.30;55.30;;;;;;5033237;28;20487;-71
2022/08/20 06:52:09;;;;;;;8.10;2.67;;;31.50;53.50;;;;;;5033134;28;20133;-70
2022/08/20 06:54:35;;;;;;;8.02;2.53;;;30.80;52.20;;;;;;5033681;28;20429;-70
2022/08/20 06:57:02;;;;;;;7.32;2.60;;;30.20;52.90;;;;;;5033101;28;20452;-70
2022/08/20 06:59:28;;;;;;;7.35;2.42;;;30.20;53.20;;;;;;5033065;28;20049;-70
2022/08/20 07:01:57;;;;;;;10.55;3.25;;;30.00;53.60;;;;;;5018809;28;20363;-70
2022/08/20 07:04:24;;;;;;;6.47;2.60;;;30.10;52.70;;;;;;5036797;28;20045;-71
2022/08/20 07:06:54;;;;;;;8.25;3.08;;;30.50;52.10;;;;;;5036873;28;20041;-71
2022/08/20 07:09:20;;;;;;;8.38;2.67;;;30.90;51.80;;;;;;5036720;28;20046;-73
2022/08/20 07:11:48;;;;;;;7.38;2.15;;;31.50;50.30;;;;;;5036778;28;20405;-71
2022/08/20 07:14:14;;;;;;;8.95;2.45;;;;;;;;;;5036406;28;20523;-70
2022/08/20 07:16:40;;;;;;;8.63;2.75;;;;;;;;;;5036602;28;20094;-70
2022/08/20 07:19:07;;;;;;;6.50;2.58;;;33.40;42.00;;;;;;5036606;28;20088;-70
2022/08/20 07:21:33;;;;;;;7.13;2.95;;;33.40;44.50;;;;;;5037053;28;20362;-70
2022/08/20 07:23:59;;;;;;;5.85;2.20;;;33.40;43.50;;;;;;5036411;28;20045;-75
2022/08/20 07:26:24;;;;;;;7.72;2.58;;;33.60;44.10;;;;;;5036306;28;20038;-71
2022/08/20 07:28:51;;;;;;;7.10;2.47;;;;;;;;;;5036305;28;20096;-70
2022/08/20 07:34:03;;;;;;;7.80;2.20;;;34.50;41.30;;;;;;5005224;28;20475;-71
2022/08/20 07:36:29;;;;;;;7.82;2.42;;;34.70;40.60;;;;;;5037052;28;20046;-72
2022/08/20 07:38:55;;;;;;;6.47;2.55;;;35.00;40.30;;;;;;5018823;28;20478;-71
2022/08/20 07:41:21;;;;;;;7.40;2.50;;;35.00;39.80;;;;;;5019003;28;20060;-71
2022/08/20 07:43:47;;;;;;;6.70;2.13;;;;;;;;;;5018558;28;20044;-71
2022/08/20 07:46:15;;;;;;;6.80;3.03;;;;;;;;;;5036420;28;20074;-74
2022/08/20 07:48:45;;;;;;;7.35;2.47;;;;;;;;;;5035812;28;20065;-69
2022/08/20 07:51:11;;;;;;;7.82;2.65;;;;;;;;;;5035676;28;20635;-69
2022/08/20 07:53:38;;;;;;;7.82;2.75;;;;;;;;;;5035820;28;20107;-70
2022/08/20 07:56:06;;;;;;;8.43;2.55;;;;;;;;;;5035841;28;20056;-70
2022/08/20 07:58:34;;;;;;;8.23;2.58;;;;;;;;;;5035739;28;20405;-70
2022/08/20 08:01:00;;;;;;;7.43;3.08;;;;;;;;;;5035703;28;20049;-70
2022/08/20 08:03:28;;;;;;;6.65;2.67;;;35.30;36.00;;;;;;5035509;28;20139;-71
2022/08/20 08:05:55;;;;;;;7.82;2.28;;;34.50;37.60;;;;;;5035720;28;20486;-70
2022/08/20 08:08:24;;;;;;;7.30;2.20;;;33.50;38.10;;;;;;5036159;28;20091;-70
2022/08/20 08:10:54;;;;;;;7.28;2.75;;;32.10;40.30;;;;;;5036304;28;20115;-70
2022/08/20 08:13:25;;;;;;;7.18;2.47;;;31.20;41.80;;;;;;5035889;28;20088;-70
2022/08/20 08:15:51;;;;;;;7.25;2.42;;;30.60;42.60;;;;;;5035690;28;20058;-70
2022/08/20 08:18:25;;;;;;;9.07;2.63;;;30.10;43.10;;;;;;5035552;28;20068;-69
2022/08/20 08:20:52;;;;;;;7.80;2.40;;;29.70;43.50;;;;;;5035914;28;20076;-69
2022/08/20 08:23:20;;;;;;;6.10;2.60;;;29.20;44.20;;;;;;5035341;28;20088;-69
2022/08/20 08:25:46;;;;;;;7.93;2.63;;;28.80;45.90;;;;;;5035306;28;20080;-69
2022/08/20 08:28:13;;;;;;;6.43;2.30;;;28.50;45.80;;;;;;5035605;28;20394;-69
2022/08/20 08:30:40;;;;;;;9.15;2.67;;;28.30;47.30;;;;;;5035249;28;20049;-69
2022/08/20 08:35:51;;;;;;;10.35;2.20;;;27.80;47.50;;;;;;5036010;28;20053;-68
2022/08/20 08:38:17;;;;;;;7.95;2.63;;;27.50;48.40;;;;;;5035115;28;20156;-68
2022/08/20 08:40:43;;;;;;;8.30;2.30;;;27.40;49.00;;;;;;5035281;28;20045;-69
2022/08/20 08:43:12;;;;;;;5.22;2.05;;;27.30;49.40;;;;;;5035240;28;20448;-69
2022/08/20 08:45:44;;;;;;;12.63;2.70;;;27.20;49.40;;;;;;5035703;28;20049;-69
2022/08/20 08:48:16;;;;;;;8.90;2.88;;;26.90;49.00;;;;;;5034518;28;20060;-69
2022/08/20 08:50:45;;;;;;;9.18;2.33;;;26.70;50.30;;;;;;5017583;28;20041;-69
2022/08/20 08:53:20;;;;;;;8.57;2.47;;;26.70;49.90;;;;;;5034812;28;20054;-69
2022/08/20 08:55:47;;;;;;;8.48;2.63;;;26.60;50.50;;;;;;5034769;28;20045;-70
2022/08/20 08:58:12;;;;;;;6.35;2.20;;;26.40;49.90;;;;;;5035232;28;20038;-69
2022/08/20 09:00:38;;;;;;;7.95;2.00;;;26.40;50.30;;;;;;5035169;28;20128;-69
2022/08/20 09:03:09;;;;;;;9.13;2.13;;;26.30;50.10;;;;;;5034521;28;20049;-69
2022/08/20 09:05:51;;;;;;;10.43;2.38;;;26.20;50.50;;;;;;5035111;28;20469;-69
2022/08/20 09:08:23;;;;;;;7.80;2.20;;;26.10;51.10;;;;;;5034605;28;20049;-68
2022/08/20 09:10:49;;;;;;;8.25;2.42;;;26.00;50.20;;;;;;5034513;28;20050;-68
2022/08/20 09:13:14;;;;;;;8.00;2.90;;;25.90;50.00;;;;;;5017016;28;20057;-78
2022/08/20 09:15:40;;;;;;;7.33;1.93;;;25.80;50.30;;;;;;5035053;28;20091;-69
2022/08/20 09:18:06;;;;;;;9.07;2.00;;;25.70;51.10;;;;;;5034296;28;20049;-68
2022/08/20 09:20:31;;;;;;;6.70;1.83;;;25.60;51.00;;;;;;5034809;28;20451;-68
2022/08/20 09:22:57;;;;;;;5.60;1.90;;;25.60;51.10;;;;;;5033581;28;20061;-69
2022/08/20 09:25:23;;;;;;;7.40;2.63;;;25.50;50.70;;;;;;5033929;28;20041;-68
2022/08/20 09:27:49;;;;;;;6.93;2.13;;;25.50;51.00;;;;;;5033831;28;20405;-68
2022/08/20 09:30:15;;;;;;;11.63;2.57;;;25.40;52.20;;;;;;5034919;28;20050;-69
2022/08/20 09:32:41;;;;;;;8.30;2.47;;;25.40;52.30;;;;;;5034141;28;20053;-69
2022/08/20 09:35:08;;;;;;;10.20;2.03;;;25.20;53.20;;;;;;5034631;28;20087;-69
2022/08/20 09:37:34;;;;;;;7.87;1.93;;;25.20;53.70;;;;;;5034060;28;20088;-69
2022/08/20 09:40:00;;;;;;;5.83;1.87;;;25.20;54.10;;;;;;5033977;28;20447;-69
2022/08/20 09:42:29;;;;;;;11.80;2.33;;;25.20;53.80;;;;;;5016605;28;20092;-70
2022/08/20 09:44:56;;;;;;;8.87;2.30;;;25.20;53.70;;;;;;5033807;28;20085;-69
2022/08/20 09:47:21;;;;;;;12.93;2.93;;;25.20;54.10;;;;;;5034216;28;20057;-69
2022/08/20 09:49:47;;;;;;;14.30;2.43;;;25.20;53.60;;;;;;5034462;28;20053;-70
2022/08/20 09:52:21;;;;;;;7.67;2.03;;;25.30;53.90;;;;;;5016734;28;20091;-69
2022/08/20 09:54:47;;;;;;;16.65;2.40;;;25.30;54.10;;;;;;5034392;28;20124;-69
2022/08/20 09:57:14;;;;;;;9.63;2.00;;;25.30;54.30;;;;;;5034312;28;20444;-69
2022/08/20 09:59:40;;;;;;;6.80;2.00;;;25.30;54.00;;;;;;5016310;28;20076;-69
2022/08/20 10:02:05;;;;;;;10.50;2.27;;;25.40;53.80;;;;;;5033665;28;20532;-69
2022/08/20 10:04:31;;;;;;;8.17;2.40;;;25.40;53.60;;;;;;5016023;28;20049;-69
2022/08/20 10:06:57;;;;;;;10.40;2.10;;;25.50;53.40;;;;;;4999893;28;20120;-70
2022/08/20 10:09:23;;;;;;;7.80;2.00;;;25.40;52.80;;;;;;5033853;28;20100;-68
2022/08/20 10:11:48;;;;;;;9.63;2.37;;;25.50;53.30;;;;;;5016579;28;20378;-68
2022/08/20 10:14:14;;;;;;;8.03;2.40;;;25.40;52.90;;;;;;5033492;28;20055;-74
2022/08/20 10:16:40;;;;;;;7.93;2.37;;;25.40;53.80;;;;;;5033388;28;20072;-72
2022/08/20 10:19:05;;;;;;;7.50;2.20;;;25.40;53.80;;;;;;5033392;28;20038;-69
2022/08/20 10:21:32;;;;;;;10.80;2.73;;;25.30;53.60;;;;;;5033357;28;20091;-70
2022/08/20 10:23:58;;;;;;;7.90;1.73;;;25.20;53.60;;;;;;5033186;28;20037;-71
2022/08/20 10:26:24;;;;;;;8.30;2.67;;;25.10;53.70;;;;;;5033758;28;20183;-70
2022/08/20 10:28:50;;;;;;;8.80;2.30;;;24.90;53.90;;;;;;5033322;28;20080;-71
2022/08/20 10:31:16;;;;;;;8.90;3.00;;;24.90;53.60;;;;;;5033218;28;20093;-71
2022/08/20 10:33:41;;;;;;;9.20;1.80;;;24.80;52.80;;;;;;5033021;28;20042;-72
2022/08/20 10:36:12;;;;;;;10.33;2.33;;;24.80;52.50;;;;;;5018942;28;20203;-68
2022/08/20 10:38:38;;;;;;;7.90;2.10;;;24.60;52.10;;;;;;5020439;28;20478;-69
2022/08/20 10:41:04;;;;;;;6.53;2.00;;;24.70;52.50;;;;;;5038024;28;20415;-69
2022/08/20 10:43:30;;;;;;;7.53;1.90;;;24.70;52.40;;;;;;5037111;28;20120;-70
2022/08/20 10:45:56;;;;;;;8.13;2.43;;;24.70;52.30;;;;;;5037231;28;20136;-71
2022/08/20 10:48:22;;;;;;;7.07;1.87;;;24.70;52.00;;;;;;5037119;28;20147;-73
2022/08/20 10:50:49;;;;;;;7.47;2.43;;;24.70;52.00;;;;;;5019916;28;20049;-72
2022/08/20 10:53:14;;;;;;;10.50;2.27;;;24.60;52.50;;;;;;5019334;28;20077;-75
2022/08/20 10:55:40;;;;;;;9.37;2.20;;;24.50;53.00;;;;;;5037072;28;20052;-73
2022/08/20 10:58:07;;;;;;;11.57;2.50;;;24.50;53.40;;;;;;5036998;28;20049;-74
2022/08/20 11:00:34;;;;;;;6.60;2.47;;;24.40;54.40;;;;;;5019593;28;20053;-70
2022/08/20 11:03:00;;;;;;;8.33;2.30;;;24.40;54.90;;;;;;5037750;28;20077;-70
2022/08/20 11:05:26;;;;;;;11.23;2.67;;;24.30;55.50;;;;;;5036842;28;20486;-69
2022/08/20 11:07:53;;;;;;;9.00;2.77;;;24.30;55.20;;;;;;5037353;28;20041;-70
2022/08/20 11:10:20;;;;;;;7.47;2.50;;;24.20;55.50;;;;;;5036821;28;20081;-69
2022/08/20 11:12:47;;;;;;;8.70;2.63;;;24.20;55.60;;;;;;5036679;28;20056;-69
2022/08/20 11:15:13;;;;;;;17.47;2.80;;;24.20;55.50;;;;;;5002914;28;20057;-69
2022/08/20 11:17:41;;;;;;;8.37;2.43;;;24.20;55.00;;;;;;5036748;28;20405;-69
2022/08/20 11:20:08;;;;;;;10.03;2.27;;;24.20;55.00;;;;;;5036580;28;20107;-68
2022/08/20 11:22:34;;;;;;;8.37;2.27;;;24.30;55.20;;;;;;5037143;28;20389;-68
2022/08/20 11:24:59;;;;;;;9.63;2.40;;;24.40;54.70;;;;;;5036773;28;20049;-69
2022/08/20 11:27:32;;;;;;;8.80;2.20;;;24.40;54.90;;;;;;5036389;28;20535;-74
2022/08/20 11:29:58;;;;;;;7.17;2.20;;;24.60;54.60;;;;;;5036485;28;20049;-68
2022/08/20 11:32:24;;;;;;;6.43;2.30;;;24.60;54.40;;;;;;5036084;28;20053;-68
2022/08/20 11:34:51;;;;;;;8.70;2.20;;;24.70;54.30;;;;;;5036304;28;20102;-68
2022/08/20 11:37:19;;;;;;;8.47;2.50;;;24.80;54.00;;;;;;5036254;28;20037;-68
2022/08/20 11:39:45;;;;;;;7.83;2.17;;;24.80;53.40;;;;;;5036148;28;20052;-67
2022/08/20 11:42:10;;;;;;;7.40;2.73;;;24.80;53.60;;;;;;5036077;28;20132;-69
2022/08/20 11:44:36;;;;;;;8.80;2.73;;;24.90;53.10;;;;;;5035798;28;20041;-69
2022/08/20 11:47:04;;;;;;;9.60;1.90;;;25.00;52.40;;;;;;5035163;28;20055;-68
2022/08/20 11:49:34;;;;;;;7.50;2.13;;;25.10;52.50;;;;;;5018409;28;20053;-68
2022/08/20 11:52:00;;;;;;;10.37;2.27;;;25.10;52.40;;;;;;5018428;28;20129;-69
2022/08/20 11:54:31;;;;;;;7.60;2.30;;;25.10;52.10;;;;;;5035902;28;20080;-67
2022/08/20 11:56:57;;;;;;;8.60;2.57;;;25.20;52.90;;;;;;5035860;28;20119;-67
2022/08/20 11:59:26;;;;;;;7.70;2.23;;;25.20;51.80;;;;;;5036491;28;20049;-67
2022/08/20 12:01:54;;;;;;;11.17;2.73;;;25.30;51.60;;;;;;5035818;28;20057;-67
2022/08/20 12:04:20;;;;;;;8.13;2.30;;;25.20;51.50;;;;;;5035586;28;20450;-67
2022/08/20 12:06:46;;;;;;;8.00;2.00;;;25.10;51.10;;;;;;5035643;28;20053;-67
2022/08/20 12:09:12;;;;;;;8.97;2.13;;;25.10;51.30;;;;;;5036309;28;20098;-67
2022/08/20 12:11:37;;;;;;;7.47;2.60;;;25.10;51.50;;;;;;5036325;28;20412;-66
2022/08/20 12:14:03;;;;;;;10.47;2.40;;;25.00;51.20;;;;;;5036317;28;20052;-67
2022/08/20 12:16:29;;;;;;;9.20;2.67;;;24.90;51.40;;;;;;5036293;28;20047;-67
2022/08/20 12:18:54;;;;;;;7.50;2.13;;;24.80;51.70;;;;;;5035492;28;20473;-67
2022/08/20 12:21:20;;;;;;;7.40;2.00;;;24.80;51.80;;;;;;5035427;28;20525;-66
2022/08/20 12:23:47;;;;;;;10.33;2.70;;;24.70;51.80;;;;;;5035858;28;20034;-66
2022/08/20 12:26:15;;;;;;;10.90;2.97;;;24.60;51.80;;;;;;5035682;28;20131;-67
2022/08/20 12:28:41;;;;;;;9.83;2.90;;;24.60;52.20;;;;;;5035305;28;20056;-66
2022/08/20 12:31:06;;;;;;;8.97;2.83;;;24.60;52.50;;;;;;5035254;28;20124;-67
2022/08/20 12:33:32;;;;;;;9.37;2.97;;;24.60;52.30;;;;;;5035179;28;20037;-66
2022/08/20 12:35:58;;;;;;;9.63;2.40;;;24.60;52.60;;;;;;5035606;28;20041;-67
2022/08/20 12:38:24;;;;;;;8.53;2.73;;;24.50;52.60;;;;;;5035111;28;20060;-67
2022/08/20 12:40:50;;;;;;;8.47;3.37;;;24.40;52.90;;;;;;5035073;28;20050;-68
2022/08/20 12:43:16;;;;;;;9.13;3.30;;;24.40;53.40;;;;;;5034904;28;20449;-68
2022/08/20 12:45:41;;;;;;;7.87;2.50;;;24.40;53.40;;;;;;5035207;28;20037;-68
2022/08/20 12:48:10;;;;;;;9.10;2.80;;;24.40;54.00;;;;;;5034975;28;20386;-68
2022/08/20 12:50:39;;;;;;;8.40;2.43;;;24.40;54.50;;;;;;5034889;28;20099;-68
2022/08/20 12:53:05;;;;;;;10.10;3.33;;;24.40;54.00;;;;;;5034774;28;20050;-68
2022/08/20 12:55:31;;;;;;;10.00;2.63;;;24.40;54.10;;;;;;5017119;28;20400;-68